sensor_id;sensor_type;location;lat;lon;timestamp;P1;durP1;ratioP1;P2;durP2;ratioP2
18838;SDS011;9548;56.920;14.804;2023-04-29T00:01:30;2.67;;;1.45;;
18838;SDS011;9548;56.920;14.804;2023-04-29T00:03:57;2.30;;;1.25;;
18838;SDS011;9548;56.920;14.804;2023-04-29T00:06:24;4.07;;;1.40;;
18838;SDS011;9548;56.920;14.804;2023-04-29T00:08:50;6.80;;;1.70;;
18838;SDS011;9548;56.920;14.804;2023-04-29T00:11:17;5.15;;;1.27;;
18838;SDS011;9548;56.920;14.804;2023-04-29T00:13:44;3.25;;;1.50;;
18838;SDS011;9548;56.920;14.804;2023-04-29T00:16:11;3.55;;;1.20;;
18838;SDS011;9548;56.920;14.804;2023-04-29T00:18:40;3.35;;;1.40;;
18838;SDS011;9548;56.920;14.804;2023-04-29T00:21:07;3.78;;;1.10;;
18838;SDS011;9548;56.920;14.804;2023-04-29T00:23:34;3.90;;;1.55;;
18838;SDS011;9548;56.920;14.804;2023-04-29T00:26:01;3.75;;;1.42;;
18838;SDS011;9548;56.920;14.804;2023-04-29T00:28:28;2.45;;;1.20;;
18838;SDS011;9548;56.920;14.804;2023-04-29T00:30:55;3.33;;;1.40;;
18838;SDS011;9548;56.920;14.804;2023-04-29T00:33:22;7.72;;;1.55;;
18838;SDS011;9548;56.920;14.804;2023-04-29T00:35:51;5.57;;;1.17;;
18838;SDS011;9548;56.920;14.804;2023-04-29T00:38:17;4.50;;;1.45;;
18838;SDS011;9548;56.920;14.804;2023-04-29T00:40:45;2.65;;;1.35;;
18838;SDS011;9548;56.920;14.804;2023-04-29T00:43:12;6.28;;;1.50;;
18838;SDS011;9548;56.920;14.804;2023-04-29T00:45:39;3.25;;;1.40;;
18838;SDS011;9548;56.920;14.804;2023-04-29T00:48:06;3.13;;;1.05;;
18838;SDS011;9548;56.920;14.804;2023-04-29T00:50:33;5.28;;;1.65;;
18838;SDS011;9548;56.920;14.804;2023-04-29T00:53:02;5.38;;;1.30;;
18838;SDS011;9548;56.920;14.804;2023-04-29T00:55:29;5.57;;;1.25;;
18838;SDS011;9548;56.920;14.804;2023-04-29T00:57:56;4.95;;;1.10;;
18838;SDS011;9548;56.920;14.804;2023-04-29T01:00:24;2.42;;;1.13;;
18838;SDS011;9548;56.920;14.804;2023-04-29T01:02:51;3.47;;;1.33;;
18838;SDS011;9548;56.920;14.804;2023-04-29T01:05:21;3.70;;;1.27;;
18838;SDS011;9548;56.920;14.804;2023-04-29T01:07:51;1.42;;;0.88;;
18838;SDS011;9548;56.920;14.804;2023-04-29T01:10:27;2.08;;;1.13;;
18838;SDS011;9548;56.920;14.804;2023-04-29T01:12:58;6.00;;;1.17;;
18838;SDS011;9548;56.920;14.804;2023-04-29T01:15:34;5.13;;;1.50;;
18838;SDS011;9548;56.920;14.804;2023-04-29T01:18:09;6.32;;;1.20;;
18838;SDS011;9548;56.920;14.804;2023-04-29T01:20:37;6.70;;;1.38;;
18838;SDS011;9548;56.920;14.804;2023-04-29T01:23:06;4.07;;;1.40;;
18838;SDS011;9548;56.920;14.804;2023-04-29T01:25:34;4.47;;;1.20;;
18838;SDS011;9548;56.920;14.804;2023-04-29T01:28:04;6.82;;;1.17;;
18838;SDS011;9548;56.920;14.804;2023-04-29T01:30:41;3.20;;;1.13;;
18838;SDS011;9548;56.920;14.804;2023-04-29T01:33:16;5.63;;;1.02;;
18838;SDS011;9548;56.920;14.804;2023-04-29T01:35:51;3.00;;;1.20;;
18838;SDS011;9548;56.920;14.804;2023-04-29T01:38:29;4.55;;;1.20;;
18838;SDS011;9548;56.920;14.804;2023-04-29T01:41:05;3.17;;;1.17;;
18838;SDS011;9548;56.920;14.804;2023-04-29T01:43:38;2.13;;;1.30;;
18838;SDS011;9548;56.920;14.804;2023-04-29T01:46:08;6.80;;;1.27;;
18838;SDS011;9548;56.920;14.804;2023-04-29T01:48:35;5.22;;;1.08;;
18838;SDS011;9548;56.920;14.804;2023-04-29T01:51:02;4.80;;;1.13;;
18838;SDS011;9548;56.920;14.804;2023-04-29T01:53:30;6.60;;;1.65;;
18838;SDS011;9548;56.920;14.804;2023-04-29T01:55:57;2.53;;;1.13;;
18838;SDS011;9548;56.920;14.804;2023-04-29T01:58:26;3.50;;;0.93;;
18838;SDS011;9548;56.920;14.804;2023-04-29T02:00:53;1.80;;;1.10;;
18838;SDS011;9548;56.920;14.804;2023-04-29T02:03:21;5.00;;;1.50;;
18838;SDS011;9548;56.920;14.804;2023-04-29T02:05:48;2.78;;;1.10;;
18838;SDS011;9548;56.920;14.804;2023-04-29T02:08:15;9.40;;;1.45;;
18838;SDS011;9548;56.920;14.804;2023-04-29T02:10:50;5.07;;;1.38;;
18838;SDS011;9548;56.920;14.804;2023-04-29T02:13:17;6.55;;;1.10;;
18838;SDS011;9548;56.920;14.804;2023-04-29T02:15:46;4.20;;;1.00;;
18838;SDS011;9548;56.920;14.804;2023-04-29T02:18:13;3.10;;;1.00;;
18838;SDS011;9548;56.920;14.804;2023-04-29T02:20:40;2.60;;;1.10;;
18838;SDS011;9548;56.920;14.804;2023-04-29T02:23:07;2.25;;;1.10;;
18838;SDS011;9548;56.920;14.804;2023-04-29T02:25:34;5.50;;;1.13;;
18838;SDS011;9548;56.920;14.804;2023-04-29T02:28:01;3.63;;;1.15;;
18838;SDS011;9548;56.920;14.804;2023-04-29T02:30:28;5.68;;;1.20;;
18838;SDS011;9548;56.920;14.804;2023-04-29T02:32:56;5.72;;;1.30;;
18838;SDS011;9548;56.920;14.804;2023-04-29T02:35:23;6.03;;;0.98;;
18838;SDS011;9548;56.920;14.804;2023-04-29T02:37:50;3.95;;;0.80;;
18838;SDS011;9548;56.920;14.804;2023-04-29T02:40:17;5.15;;;0.95;;
18838;SDS011;9548;56.920;14.804;2023-04-29T02:42:44;3.03;;;1.08;;
18838;SDS011;9548;56.920;14.804;2023-04-29T02:45:11;3.63;;;1.00;;
18838;SDS011;9548;56.920;14.804;2023-04-29T02:47:38;3.75;;;1.27;;
18838;SDS011;9548;56.920;14.804;2023-04-29T02:50:07;3.10;;;1.13;;
18838;SDS011;9548;56.920;14.804;2023-04-29T02:52:34;1.75;;;1.20;;
18838;SDS011;9548;56.920;14.804;2023-04-29T02:55:01;4.47;;;1.00;;
18838;SDS011;9548;56.920;14.804;2023-04-29T02:57:28;4.25;;;1.52;;
18838;SDS011;9548;56.920;14.804;2023-04-29T02:59:56;3.00;;;1.38;;
18838;SDS011;9548;56.920;14.804;2023-04-29T03:02:23;3.50;;;1.15;;
18838;SDS011;9548;56.920;14.804;2023-04-29T03:04:50;3.90;;;1.20;;
18838;SDS011;9548;56.920;14.804;2023-04-29T03:07:18;3.42;;;1.40;;
18838;SDS011;9548;56.920;14.804;2023-04-29T03:09:45;3.33;;;1.10;;
18838;SDS011;9548;56.920;14.804;2023-04-29T03:12:12;5.85;;;1.00;;
18838;SDS011;9548;56.920;14.804;2023-04-29T03:14:41;4.85;;;1.20;;
18838;SDS011;9548;56.920;14.804;2023-04-29T03:17:07;4.32;;;1.17;;
18838;SDS011;9548;56.920;14.804;2023-04-29T03:19:34;1.90;;;1.00;;
18838;SDS011;9548;56.920;14.804;2023-04-29T03:22:02;5.25;;;1.20;;
18838;SDS011;9548;56.920;14.804;2023-04-29T03:24:30;4.07;;;1.20;;
18838;SDS011;9548;56.920;14.804;2023-04-29T03:26:57;3.92;;;1.80;;
18838;SDS011;9548;56.920;14.804;2023-04-29T03:29:25;2.88;;;1.10;;
18838;SDS011;9548;56.920;14.804;2023-04-29T03:31:52;3.75;;;1.25;;
18838;SDS011;9548;56.920;14.804;2023-04-29T03:34:20;1.10;;;1.00;;
18838;SDS011;9548;56.920;14.804;2023-04-29T03:36:48;1.73;;;1.08;;
18838;SDS011;9548;56.920;14.804;2023-04-29T03:39:16;3.72;;;1.05;;
18838;SDS011;9548;56.920;14.804;2023-04-29T03:41:44;2.70;;;1.10;;
18838;SDS011;9548;56.920;14.804;2023-04-29T03:44:13;7.18;;;1.00;;
18838;SDS011;9548;56.920;14.804;2023-04-29T03:46:39;3.08;;;1.25;;
18838;SDS011;9548;56.920;14.804;2023-04-29T03:49:06;7.65;;;1.20;;
18838;SDS011;9548;56.920;14.804;2023-04-29T03:51:33;3.80;;;1.27;;
18838;SDS011;9548;56.920;14.804;2023-04-29T03:54:00;2.05;;;1.10;;
18838;SDS011;9548;56.920;14.804;2023-04-29T03:56:27;4.35;;;1.45;;
18838;SDS011;9548;56.920;14.804;2023-04-29T03:58:55;4.85;;;1.30;;
18838;SDS011;9548;56.920;14.804;2023-04-29T04:01:22;2.47;;;1.40;;
18838;SDS011;9548;56.920;14.804;2023-04-29T04:03:50;4.47;;;1.33;;
18838;SDS011;9548;56.920;14.804;2023-04-29T04:06:16;2.05;;;1.20;;
18838;SDS011;9548;56.920;14.804;2023-04-29T04:08:43;2.88;;;1.20;;
18838;SDS011;9548;56.920;14.804;2023-04-29T04:11:10;3.58;;;1.33;;
18838;SDS011;9548;56.920;14.804;2023-04-29T04:13:39;5.70;;;1.38;;
18838;SDS011;9548;56.920;14.804;2023-04-29T04:16:07;4.30;;;1.45;;
18838;SDS011;9548;56.920;14.804;2023-04-29T04:18:35;3.40;;;1.20;;
18838;SDS011;9548;56.920;14.804;2023-04-29T04:21:05;4.47;;;1.45;;
18838;SDS011;9548;56.920;14.804;2023-04-29T04:23:32;7.53;;;1.33;;
18838;SDS011;9548;56.920;14.804;2023-04-29T04:25:59;7.50;;;1.75;;
18838;SDS011;9548;56.920;14.804;2023-04-29T04:28:26;2.92;;;1.25;;
18838;SDS011;9548;56.920;14.804;2023-04-29T04:30:53;4.70;;;1.77;;
18838;SDS011;9548;56.920;14.804;2023-04-29T04:33:22;3.25;;;1.38;;
18838;SDS011;9548;56.920;14.804;2023-04-29T04:35:48;7.80;;;1.67;;
18838;SDS011;9548;56.920;14.804;2023-04-29T04:38:15;6.47;;;1.45;;
18838;SDS011;9548;56.920;14.804;2023-04-29T04:40:43;3.70;;;1.20;;
18838;SDS011;9548;56.920;14.804;2023-04-29T04:43:10;4.75;;;1.88;;
18838;SDS011;9548;56.920;14.804;2023-04-29T04:45:37;4.18;;;1.38;;
18838;SDS011;9548;56.920;14.804;2023-04-29T04:48:04;6.00;;;1.70;;
18838;SDS011;9548;56.920;14.804;2023-04-29T04:50:32;2.05;;;1.33;;
18838;SDS011;9548;56.920;14.804;2023-04-29T04:52:59;8.00;;;1.60;;
18838;SDS011;9548;56.920;14.804;2023-04-29T04:55:26;3.15;;;1.23;;
18838;SDS011;9548;56.920;14.804;2023-04-29T04:57:53;2.80;;;1.30;;
18838;SDS011;9548;56.920;14.804;2023-04-29T05:00:20;2.40;;;1.35;;
18838;SDS011;9548;56.920;14.804;2023-04-29T05:02:47;4.70;;;1.52;;
18838;SDS011;9548;56.920;14.804;2023-04-29T05:05:14;4.25;;;1.20;;
18838;SDS011;9548;56.920;14.804;2023-04-29T05:07:43;4.53;;;1.30;;
18838;SDS011;9548;56.920;14.804;2023-04-29T05:10:10;4.95;;;1.30;;
18838;SDS011;9548;56.920;14.804;2023-04-29T05:12:37;4.43;;;1.42;;
18838;SDS011;9548;56.920;14.804;2023-04-29T05:15:04;3.42;;;1.20;;
18838;SDS011;9548;56.920;14.804;2023-04-29T05:17:31;4.13;;;1.60;;
18838;SDS011;9548;56.920;14.804;2023-04-29T05:19:58;6.47;;;1.30;;
18838;SDS011;9548;56.920;14.804;2023-04-29T05:22:25;2.13;;;1.50;;
18838;SDS011;9548;56.920;14.804;2023-04-29T05:24:54;7.03;;;1.50;;
18838;SDS011;9548;56.920;14.804;2023-04-29T05:27:26;3.60;;;1.67;;
18838;SDS011;9548;56.920;14.804;2023-04-29T05:29:53;2.38;;;1.20;;
18838;SDS011;9548;56.920;14.804;2023-04-29T05:32:20;3.63;;;1.60;;
18838;SDS011;9548;56.920;14.804;2023-04-29T05:34:47;6.82;;;1.67;;
18838;SDS011;9548;56.920;14.804;2023-04-29T05:37:14;5.53;;;1.50;;
18838;SDS011;9548;56.920;14.804;2023-04-29T05:39:41;2.95;;;1.20;;
18838;SDS011;9548;56.920;14.804;2023-04-29T05:42:09;2.05;;;1.27;;
18838;SDS011;9548;56.920;14.804;2023-04-29T05:44:36;3.92;;;1.60;;
18838;SDS011;9548;56.920;14.804;2023-04-29T05:47:04;5.18;;;1.73;;
18838;SDS011;9548;56.920;14.804;2023-04-29T05:49:31;4.72;;;1.27;;
18838;SDS011;9548;56.920;14.804;2023-04-29T05:51:58;5.57;;;1.55;;
18838;SDS011;9548;56.920;14.804;2023-04-29T05:54:28;2.85;;;1.15;;
18838;SDS011;9548;56.920;14.804;2023-04-29T05:56:55;3.35;;;1.02;;
18838;SDS011;9548;56.920;14.804;2023-04-29T05:59:23;3.30;;;1.25;;
18838;SDS011;9548;56.920;14.804;2023-04-29T06:01:50;2.03;;;1.25;;
18838;SDS011;9548;56.920;14.804;2023-04-29T06:04:17;3.88;;;1.55;;
18838;SDS011;9548;56.920;14.804;2023-04-29T06:06:44;5.50;;;1.15;;
18838;SDS011;9548;56.920;14.804;2023-04-29T06:09:11;2.17;;;1.20;;
18838;SDS011;9548;56.920;14.804;2023-04-29T06:11:39;5.00;;;1.10;;
18838;SDS011;9548;56.920;14.804;2023-04-29T06:14:06;3.55;;;1.20;;
18838;SDS011;9548;56.920;14.804;2023-04-29T06:16:34;2.85;;;1.42;;
18838;SDS011;9548;56.920;14.804;2023-04-29T06:19:01;4.15;;;1.13;;
18838;SDS011;9548;56.920;14.804;2023-04-29T06:21:28;3.50;;;1.17;;
18838;SDS011;9548;56.920;14.804;2023-04-29T06:23:55;6.28;;;0.95;;
18838;SDS011;9548;56.920;14.804;2023-04-29T06:26:22;4.32;;;1.10;;
18838;SDS011;9548;56.920;14.804;2023-04-29T06:28:49;6.82;;;1.25;;
18838;SDS011;9548;56.920;14.804;2023-04-29T06:31:16;5.60;;;1.20;;
18838;SDS011;9548;56.920;14.804;2023-04-29T06:33:44;2.90;;;1.52;;
18838;SDS011;9548;56.920;14.804;2023-04-29T06:36:11;2.58;;;1.17;;
18838;SDS011;9548;56.920;14.804;2023-04-29T06:38:38;4.05;;;1.10;;
18838;SDS011;9548;56.920;14.804;2023-04-29T06:41:05;4.32;;;1.00;;
18838;SDS011;9548;56.920;14.804;2023-04-29T06:43:32;4.97;;;1.55;;
18838;SDS011;9548;56.920;14.804;2023-04-29T06:45:59;4.93;;;0.90;;
18838;SDS011;9548;56.920;14.804;2023-04-29T06:48:26;2.58;;;1.13;;
18838;SDS011;9548;56.920;14.804;2023-04-29T06:50:55;3.92;;;1.10;;
18838;SDS011;9548;56.920;14.804;2023-04-29T06:53:24;4.10;;;1.45;;
18838;SDS011;9548;56.920;14.804;2023-04-29T06:55:51;3.40;;;1.00;;
18838;SDS011;9548;56.920;14.804;2023-04-29T06:58:18;5.70;;;1.10;;
18838;SDS011;9548;56.920;14.804;2023-04-29T07:00:45;2.42;;;1.00;;
18838;SDS011;9548;56.920;14.804;2023-04-29T07:03:13;2.85;;;0.80;;
18838;SDS011;9548;56.920;14.804;2023-04-29T07:05:41;2.17;;;0.82;;
18838;SDS011;9548;56.920;14.804;2023-04-29T07:08:11;3.03;;;0.70;;
18838;SDS011;9548;56.920;14.804;2023-04-29T07:10:38;1.83;;;0.52;;
18838;SDS011;9548;56.920;14.804;2023-04-29T07:13:06;2.15;;;0.52;;
18838;SDS011;9548;56.920;14.804;2023-04-29T07:15:33;1.90;;;0.70;;
18838;SDS011;9548;56.920;14.804;2023-04-29T07:18:02;3.53;;;0.68;;
18838;SDS011;9548;56.920;14.804;2023-04-29T07:20:29;2.75;;;0.50;;
18838;SDS011;9548;56.920;14.804;2023-04-29T07:22:56;3.53;;;0.85;;
18838;SDS011;9548;56.920;14.804;2023-04-29T07:25:24;2.60;;;0.70;;
18838;SDS011;9548;56.920;14.804;2023-04-29T07:27:52;1.55;;;0.57;;
18838;SDS011;9548;56.920;14.804;2023-04-29T07:30:18;1.80;;;0.70;;
18838;SDS011;9548;56.920;14.804;2023-04-29T07:32:45;1.85;;;0.82;;
18838;SDS011;9548;56.920;14.804;2023-04-29T07:35:12;1.35;;;0.80;;
18838;SDS011;9548;56.920;14.804;2023-04-29T07:37:39;3.28;;;0.80;;
18838;SDS011;9548;56.920;14.804;2023-04-29T07:40:07;5.28;;;0.68;;
18838;SDS011;9548;56.920;14.804;2023-04-29T07:42:36;1.55;;;0.50;;
18838;SDS011;9548;56.920;14.804;2023-04-29T07:45:03;1.98;;;0.65;;
18838;SDS011;9548;56.920;14.804;2023-04-29T07:47:31;3.85;;;1.02;;
18838;SDS011;9548;56.920;14.804;2023-04-29T07:49:58;1.27;;;0.75;;
18838;SDS011;9548;56.920;14.804;2023-04-29T07:52:25;1.65;;;0.70;;
18838;SDS011;9548;56.920;14.804;2023-04-29T07:54:51;2.15;;;0.73;;
18838;SDS011;9548;56.920;14.804;2023-04-29T07:57:20;6.10;;;0.60;;
18838;SDS011;9548;56.920;14.804;2023-04-29T07:59:51;2.42;;;0.65;;
18838;SDS011;9548;56.920;14.804;2023-04-29T08:02:18;1.52;;;0.75;;
18838;SDS011;9548;56.920;14.804;2023-04-29T08:04:45;3.55;;;0.73;;
18838;SDS011;9548;56.920;14.804;2023-04-29T08:07:12;1.02;;;0.50;;
18838;SDS011;9548;56.920;14.804;2023-04-29T08:09:39;1.13;;;0.60;;
18838;SDS011;9548;56.920;14.804;2023-04-29T08:12:07;1.42;;;0.40;;
18838;SDS011;9548;56.920;14.804;2023-04-29T08:14:33;0.80;;;0.60;;
18838;SDS011;9548;56.920;14.804;2023-04-29T08:17:02;3.25;;;0.80;;
18838;SDS011;9548;56.920;14.804;2023-04-29T08:19:28;2.05;;;0.70;;
18838;SDS011;9548;56.920;14.804;2023-04-29T08:21:56;1.38;;;0.75;;
18838;SDS011;9548;56.920;14.804;2023-04-29T08:24:23;3.50;;;0.70;;
18838;SDS011;9548;56.920;14.804;2023-04-29T08:26:50;2.22;;;0.60;;
18838;SDS011;9548;56.920;14.804;2023-04-29T08:29:17;1.75;;;0.57;;
18838;SDS011;9548;56.920;14.804;2023-04-29T08:31:44;0.50;;;0.43;;
18838;SDS011;9548;56.920;14.804;2023-04-29T08:34:13;1.52;;;0.60;;
18838;SDS011;9548;56.920;14.804;2023-04-29T08:36:40;0.60;;;0.40;;
18838;SDS011;9548;56.920;14.804;2023-04-29T08:39:07;0.70;;;0.40;;
18838;SDS011;9548;56.920;14.804;2023-04-29T08:41:34;3.10;;;0.70;;
18838;SDS011;9548;56.920;14.804;2023-04-29T08:44:02;1.83;;;0.60;;
18838;SDS011;9548;56.920;14.804;2023-04-29T08:46:29;4.18;;;0.80;;
18838;SDS011;9548;56.920;14.804;2023-04-29T08:48:57;0.60;;;0.50;;
18838;SDS011;9548;56.920;14.804;2023-04-29T08:51:29;1.45;;;0.70;;
18838;SDS011;9548;56.920;14.804;2023-04-29T08:53:58;2.00;;;0.50;;
18838;SDS011;9548;56.920;14.804;2023-04-29T08:56:25;0.63;;;0.40;;
18838;SDS011;9548;56.920;14.804;2023-04-29T08:58:53;2.90;;;0.52;;
18838;SDS011;9548;56.920;14.804;2023-04-29T09:01:23;1.42;;;0.70;;
18838;SDS011;9548;56.920;14.804;2023-04-29T09:03:53;1.80;;;0.43;;
18838;SDS011;9548;56.920;14.804;2023-04-29T09:06:27;1.08;;;0.30;;
18838;SDS011;9548;56.920;14.804;2023-04-29T09:08:57;1.45;;;0.50;;
18838;SDS011;9548;56.920;14.804;2023-04-29T09:11:25;1.35;;;0.63;;
18838;SDS011;9548;56.920;14.804;2023-04-29T09:13:57;0.93;;;0.40;;
18838;SDS011;9548;56.920;14.804;2023-04-29T09:16:24;1.85;;;0.40;;
18838;SDS011;9548;56.920;14.804;2023-04-29T09:18:51;3.25;;;0.70;;
18838;SDS011;9548;56.920;14.804;2023-04-29T09:21:19;1.67;;;0.60;;
18838;SDS011;9548;56.920;14.804;2023-04-29T09:23:49;0.30;;;0.30;;
18838;SDS011;9548;56.920;14.804;2023-04-29T09:26:17;2.70;;;0.57;;
18838;SDS011;9548;56.920;14.804;2023-04-29T09:28:44;1.42;;;0.60;;
18838;SDS011;9548;56.920;14.804;2023-04-29T09:31:13;1.27;;;0.47;;
18838;SDS011;9548;56.920;14.804;2023-04-29T09:33:50;0.60;;;0.40;;
18838;SDS011;9548;56.920;14.804;2023-04-29T09:36:34;1.80;;;0.70;;
18838;SDS011;9548;56.920;14.804;2023-04-29T09:39:03;0.40;;;0.40;;
18838;SDS011;9548;56.920;14.804;2023-04-29T09:41:35;2.08;;;0.70;;
18838;SDS011;9548;56.920;14.804;2023-04-29T09:44:06;1.58;;;0.50;;
18838;SDS011;9548;56.920;14.804;2023-04-29T09:46:34;0.70;;;0.50;;
18838;SDS011;9548;56.920;14.804;2023-04-29T09:49:01;0.68;;;0.50;;
18838;SDS011;9548;56.920;14.804;2023-04-29T09:51:30;1.00;;;0.60;;
18838;SDS011;9548;56.920;14.804;2023-04-29T09:53:58;2.53;;;0.52;;
18838;SDS011;9548;56.920;14.804;2023-04-29T09:56:28;1.33;;;0.50;;
18838;SDS011;9548;56.920;14.804;2023-04-29T09:59:14;2.13;;;0.70;;
18838;SDS011;9548;56.920;14.804;2023-04-29T10:01:41;0.73;;;0.60;;
18838;SDS011;9548;56.920;14.804;2023-04-29T10:04:09;0.45;;;0.45;;
18838;SDS011;9548;56.920;14.804;2023-04-29T10:06:37;1.45;;;0.82;;
18838;SDS011;9548;56.920;14.804;2023-04-29T10:09:06;1.75;;;0.60;;
18838;SDS011;9548;56.920;14.804;2023-04-29T10:11:39;3.88;;;0.63;;
18838;SDS011;9548;56.920;14.804;2023-04-29T10:14:06;0.63;;;0.57;;
18838;SDS011;9548;56.920;14.804;2023-04-29T10:16:38;3.80;;;0.60;;
18838;SDS011;9548;56.920;14.804;2023-04-29T10:19:11;1.73;;;0.60;;
18838;SDS011;9548;56.920;14.804;2023-04-29T10:21:43;0.88;;;0.55;;
18838;SDS011;9548;56.920;14.804;2023-04-29T10:24:13;1.73;;;0.70;;
18838;SDS011;9548;56.920;14.804;2023-04-29T10:26:43;0.77;;;0.45;;
18838;SDS011;9548;56.920;14.804;2023-04-29T10:29:12;1.13;;;0.70;;
18838;SDS011;9548;56.920;14.804;2023-04-29T10:31:40;4.50;;;0.60;;
18838;SDS011;9548;56.920;14.804;2023-04-29T10:34:10;2.13;;;0.50;;
18838;SDS011;9548;56.920;14.804;2023-04-29T10:36:38;3.17;;;0.50;;
18838;SDS011;9548;56.920;14.804;2023-04-29T10:39:06;1.60;;;0.63;;
18838;SDS011;9548;56.920;14.804;2023-04-29T10:41:46;1.80;;;0.60;;
18838;SDS011;9548;56.920;14.804;2023-04-29T10:44:14;0.98;;;0.68;;
18838;SDS011;9548;56.920;14.804;2023-04-29T10:46:41;3.65;;;1.23;;
18838;SDS011;9548;56.920;14.804;2023-04-29T10:49:08;5.55;;;0.80;;
18838;SDS011;9548;56.920;14.804;2023-04-29T10:51:38;4.43;;;0.75;;
18838;SDS011;9548;56.920;14.804;2023-04-29T10:54:07;4.75;;;0.70;;
18838;SDS011;9548;56.920;14.804;2023-04-29T10:56:47;1.13;;;0.60;;
18838;SDS011;9548;56.920;14.804;2023-04-29T10:59:17;1.70;;;0.55;;
18838;SDS011;9548;56.920;14.804;2023-04-29T11:01:47;1.73;;;0.60;;
18838;SDS011;9548;56.920;14.804;2023-04-29T11:04:15;1.75;;;0.75;;
18838;SDS011;9548;56.920;14.804;2023-04-29T11:06:44;2.50;;;0.93;;
18838;SDS011;9548;56.920;14.804;2023-04-29T11:09:13;1.73;;;0.47;;
18838;SDS011;9548;56.920;14.804;2023-04-29T11:11:44;1.58;;;0.80;;
18838;SDS011;9548;56.920;14.804;2023-04-29T11:14:20;2.33;;;0.80;;
18838;SDS011;9548;56.920;14.804;2023-04-29T11:16:53;1.17;;;0.63;;
18838;SDS011;9548;56.920;14.804;2023-04-29T11:19:23;3.25;;;0.68;;
18838;SDS011;9548;56.920;14.804;2023-04-29T11:22:08;3.08;;;0.70;;
18838;SDS011;9548;56.920;14.804;2023-04-29T11:24:47;2.00;;;0.70;;
18838;SDS011;9548;56.920;14.804;2023-04-29T11:27:16;3.30;;;1.23;;
18838;SDS011;9548;56.920;14.804;2023-04-29T11:29:44;4.47;;;0.60;;
18838;SDS011;9548;56.920;14.804;2023-04-29T11:32:11;1.35;;;0.60;;
18838;SDS011;9548;56.920;14.804;2023-04-29T11:34:39;0.68;;;0.60;;
18838;SDS011;9548;56.920;14.804;2023-04-29T11:37:05;0.85;;;0.55;;
18838;SDS011;9548;56.920;14.804;2023-04-29T11:39:32;1.38;;;0.70;;
18838;SDS011;9548;56.920;14.804;2023-04-29T11:42:03;1.00;;;0.70;;
18838;SDS011;9548;56.920;14.804;2023-04-29T11:44:33;2.63;;;0.75;;
18838;SDS011;9548;56.920;14.804;2023-04-29T11:49:29;2.05;;;0.63;;
18838;SDS011;9548;56.920;14.804;2023-04-29T11:51:56;2.30;;;0.80;;
18838;SDS011;9548;56.920;14.804;2023-04-29T11:54:24;1.65;;;0.50;;
18838;SDS011;9548;56.920;14.804;2023-04-29T11:56:52;2.25;;;0.80;;
18838;SDS011;9548;56.920;14.804;2023-04-29T11:59:19;3.78;;;0.77;;
18838;SDS011;9548;56.920;14.804;2023-04-29T12:01:48;2.63;;;0.60;;
18838;SDS011;9548;56.920;14.804;2023-04-29T12:04:15;0.98;;;0.70;;
18838;SDS011;9548;56.920;14.804;2023-04-29T12:06:42;3.03;;;0.60;;
18838;SDS011;9548;56.920;14.804;2023-04-29T12:09:09;5.90;;;1.02;;
18838;SDS011;9548;56.920;14.804;2023-04-29T12:11:36;3.15;;;0.93;;
18838;SDS011;9548;56.920;14.804;2023-04-29T12:14:03;3.05;;;0.85;;
18838;SDS011;9548;56.920;14.804;2023-04-29T12:16:31;1.02;;;0.63;;
18838;SDS011;9548;56.920;14.804;2023-04-29T12:19:00;1.15;;;0.90;;
18838;SDS011;9548;56.920;14.804;2023-04-29T12:21:27;3.05;;;0.70;;
18838;SDS011;9548;56.920;14.804;2023-04-29T12:23:57;3.03;;;0.73;;
18838;SDS011;9548;56.920;14.804;2023-04-29T12:26:26;2.65;;;1.13;;
18838;SDS011;9548;56.920;14.804;2023-04-29T12:28:53;11.35;;;1.35;;
18838;SDS011;9548;56.920;14.804;2023-04-29T12:31:23;3.45;;;0.98;;
18838;SDS011;9548;56.920;14.804;2023-04-29T12:33:57;3.30;;;0.93;;
18838;SDS011;9548;56.920;14.804;2023-04-29T12:36:26;1.83;;;1.13;;
18838;SDS011;9548;56.920;14.804;2023-04-29T12:38:53;4.78;;;1.13;;
18838;SDS011;9548;56.920;14.804;2023-04-29T12:41:34;7.88;;;1.13;;
18838;SDS011;9548;56.920;14.804;2023-04-29T12:44:02;4.00;;;1.27;;
18838;SDS011;9548;56.920;14.804;2023-04-29T12:46:32;5.25;;;1.70;;
18838;SDS011;9548;56.920;14.804;2023-04-29T12:49:00;1.38;;;1.20;;
18838;SDS011;9548;56.920;14.804;2023-04-29T12:51:29;1.30;;;1.20;;
18838;SDS011;9548;56.920;14.804;2023-04-29T12:53:57;2.72;;;1.30;;
18838;SDS011;9548;56.920;14.804;2023-04-29T12:56:24;6.05;;;1.67;;
18838;SDS011;9548;56.920;14.804;2023-04-29T12:58:51;4.63;;;1.77;;
18838;SDS011;9548;56.920;14.804;2023-04-29T13:01:18;7.60;;;2.08;;
18838;SDS011;9548;56.920;14.804;2023-04-29T13:03:45;6.68;;;1.63;;
18838;SDS011;9548;56.920;14.804;2023-04-29T13:06:13;5.25;;;2.28;;
18838;SDS011;9548;56.920;14.804;2023-04-29T13:08:41;4.03;;;2.30;;
18838;SDS011;9548;56.920;14.804;2023-04-29T13:11:08;3.80;;;2.67;;
18838;SDS011;9548;56.920;14.804;2023-04-29T13:13:37;3.13;;;2.40;;
18838;SDS011;9548;56.920;14.804;2023-04-29T13:16:04;6.20;;;2.53;;
18838;SDS011;9548;56.920;14.804;2023-04-29T13:18:32;5.45;;;2.67;;
18838;SDS011;9548;56.920;14.804;2023-04-29T13:20:59;8.85;;;3.17;;
18838;SDS011;9548;56.920;14.804;2023-04-29T13:23:26;6.78;;;3.70;;
18838;SDS011;9548;56.920;14.804;2023-04-29T13:25:54;3.65;;;2.90;;
18838;SDS011;9548;56.920;14.804;2023-04-29T13:28:21;7.32;;;3.83;;
18838;SDS011;9548;56.920;14.804;2023-04-29T13:30:48;10.68;;;3.55;;
18838;SDS011;9548;56.920;14.804;2023-04-29T13:33:16;6.32;;;3.80;;
18838;SDS011;9548;56.920;14.804;2023-04-29T13:35:43;12.60;;;4.00;;
18838;SDS011;9548;56.920;14.804;2023-04-29T13:38:11;7.70;;;4.13;;
18838;SDS011;9548;56.920;14.804;2023-04-29T13:40:37;6.82;;;3.47;;
18838;SDS011;9548;56.920;14.804;2023-04-29T13:43:06;10.80;;;3.78;;
18838;SDS011;9548;56.920;14.804;2023-04-29T13:45:33;7.38;;;4.03;;
18838;SDS011;9548;56.920;14.804;2023-04-29T13:48:00;6.60;;;2.90;;
18838;SDS011;9548;56.920;14.804;2023-04-29T13:50:27;5.75;;;3.00;;
18838;SDS011;9548;56.920;14.804;2023-04-29T13:52:54;4.63;;;2.13;;
18838;SDS011;9548;56.920;14.804;2023-04-29T13:55:21;2.67;;;1.70;;
18838;SDS011;9548;56.920;14.804;2023-04-29T13:57:48;2.60;;;1.60;;
18838;SDS011;9548;56.920;14.804;2023-04-29T14:00:18;3.78;;;1.67;;
18838;SDS011;9548;56.920;14.804;2023-04-29T14:02:45;3.25;;;1.30;;
18838;SDS011;9548;56.920;14.804;2023-04-29T14:05:12;4.32;;;1.08;;
18838;SDS011;9548;56.920;14.804;2023-04-29T14:07:40;5.40;;;1.20;;
18838;SDS011;9548;56.920;14.804;2023-04-29T14:10:07;1.25;;;0.90;;
18838;SDS011;9548;56.920;14.804;2023-04-29T14:12:34;2.13;;;0.80;;
18838;SDS011;9548;56.920;14.804;2023-04-29T14:15:01;1.75;;;0.80;;
18838;SDS011;9548;56.920;14.804;2023-04-29T14:17:29;3.08;;;1.05;;
18838;SDS011;9548;56.920;14.804;2023-04-29T14:19:56;3.55;;;1.17;;
18838;SDS011;9548;56.920;14.804;2023-04-29T14:22:23;2.35;;;1.08;;
18838;SDS011;9548;56.920;14.804;2023-04-29T14:24:51;2.90;;;0.90;;
18838;SDS011;9548;56.920;14.804;2023-04-29T14:27:18;0.93;;;0.70;;
18838;SDS011;9548;56.920;14.804;2023-04-29T14:29:46;1.30;;;0.90;;
18838;SDS011;9548;56.920;14.804;2023-04-29T14:32:13;1.25;;;0.85;;
18838;SDS011;9548;56.920;14.804;2023-04-29T14:34:41;1.80;;;0.90;;
18838;SDS011;9548;56.920;14.804;2023-04-29T14:37:08;1.63;;;0.95;;
18838;SDS011;9548;56.920;14.804;2023-04-29T14:39:35;2.22;;;1.20;;
18838;SDS011;9548;56.920;14.804;2023-04-29T14:42:02;1.98;;;0.68;;
18838;SDS011;9548;56.920;14.804;2023-04-29T14:44:29;1.85;;;0.93;;
18838;SDS011;9548;56.920;14.804;2023-04-29T14:46:56;1.35;;;0.85;;
18838;SDS011;9548;56.920;14.804;2023-04-29T14:49:23;2.67;;;1.00;;
18838;SDS011;9548;56.920;14.804;2023-04-29T14:51:51;5.13;;;1.20;;
18838;SDS011;9548;56.920;14.804;2023-04-29T14:54:18;3.60;;;1.00;;
18838;SDS011;9548;56.920;14.804;2023-04-29T14:56:45;1.77;;;0.88;;